createdAt,value
2023-03-19T00:02:17.365Z,10.64
2023-03-19T00:12:21.294Z,10.15
2023-03-19T00:22:30.852Z,9.43
2023-03-19T00:32:42.398Z,9.45
2023-03-19T00:42:41.671Z,9.32
2023-03-19T00:52:50.167Z,10.59
2023-03-19T01:02:59.584Z,10.75
2023-03-19T01:13:10.145Z,12.22
2023-03-19T01:23:18.840Z,11.73
2023-03-19T01:33:27.124Z,12.31
2023-03-19T01:43:36.774Z,13.25
2023-03-19T01:53:45.942Z,13.18
2023-03-19T02:03:55.774Z,13.61
2023-03-19T02:14:04.376Z,13
2023-03-19T02:24:12.637Z,14.07
2023-03-19T02:34:23.042Z,13.74
2023-03-19T02:44:28.823Z,13.54
2023-03-19T02:54:28.232Z,14.43
2023-03-19T03:04:36.808Z,14.3
2023-03-19T03:14:48.806Z,13.4
2023-03-19T03:24:46.308Z,14.67
2023-03-19T03:34:54.452Z,17.6
2023-03-19T03:45:02.678Z,23.03
2023-03-19T03:55:14.087Z,19.13
2023-03-19T04:05:13.641Z,16.51
2023-03-19T04:15:23.059Z,14.92
2023-03-19T04:25:31.334Z,14.01
2023-03-19T04:35:44.794Z,13.45
2023-03-19T04:45:43.164Z,14.45
2023-03-19T04:55:51.545Z,16.2
2023-03-19T05:06:00.928Z,16.9
2023-03-19T05:16:11.374Z,15.63
2023-03-19T05:26:09.608Z,15.86
2023-03-19T05:36:22.011Z,16.65
2023-03-19T05:46:21.437Z,17.92
2023-03-19T05:56:32.333Z,17.18
2023-03-19T06:06:31.934Z,16.46
2023-03-19T06:16:40.289Z,15.48
2023-03-19T06:26:52.643Z,15.81
2023-03-19T06:36:54.292Z,15.95
2023-03-19T06:46:53.953Z,17.14
2023-03-19T06:57:03.198Z,17.67
2023-03-19T07:07:12.634Z,18.21
2023-03-19T07:17:21.602Z,17.01
2023-03-19T07:27:31.161Z,17.97
2023-03-19T07:37:39.231Z,18.95
2023-03-19T07:47:49.259Z,18.9
2023-03-19T07:57:55.372Z,17.92
2023-03-19T08:08:14.791Z,18.02
2023-03-19T08:18:17.967Z,17.19
2023-03-19T08:28:17.649Z,17.27
2023-03-19T08:38:25.796Z,17.5
2023-03-19T08:48:35.237Z,11.77
2023-03-19T08:58:43.392Z,6.64
2023-03-19T09:08:52.098Z,5.33
2023-03-19T09:18:59.959Z,3.6
2023-03-19T09:29:09.667Z,3.35
2023-03-19T09:39:18.343Z,1.86
2023-03-19T09:49:29.824Z,2.05
2023-03-19T09:59:28.072Z,2.65
2023-03-19T10:09:38.020Z,2.24
2023-03-19T10:19:45.331Z,2.23
2023-03-19T10:29:53.580Z,2.09
2023-03-19T10:40:05.601Z,2.56
2023-03-19T10:50:03.748Z,2.41
2023-03-19T11:00:11.896Z,1.97
2023-03-19T11:10:24.038Z,2.05
2023-03-19T11:20:22.457Z,1.15
2023-03-19T11:30:24.866Z,1.17
2023-03-19T11:40:25.148Z,1.16
2023-03-19T11:50:31.992Z,1.54
2023-03-19T12:00:47.135Z,2.1
2023-03-19T12:10:48.291Z,1.94
2023-03-19T12:20:50.424Z,1.64
2023-03-19T12:30:49.265Z,1.4
2023-03-19T12:40:58.646Z,1.34
2023-03-19T12:51:07.990Z,1.16
2023-03-19T13:01:17.377Z,1.64
2023-03-19T13:11:25.647Z,1.41
2023-03-19T13:21:33.841Z,1.52
2023-03-19T13:31:42.962Z,1.77
2023-03-19T13:41:51.306Z,5.55
2023-03-19T13:51:59.486Z,2.7
2023-03-19T14:02:10.353Z,1.4
2023-03-19T14:12:08.630Z,1.7
2023-03-19T14:22:16.375Z,1.68
2023-03-19T14:32:25.457Z,1.57
2023-03-19T14:42:33.710Z,2.65
2023-03-19T14:52:41.739Z,2.88
2023-03-19T15:02:49.893Z,1.56
2023-03-19T15:12:59.504Z,1.44
2023-03-19T15:23:19.937Z,1.41
2023-03-19T15:33:29.329Z,1.22
2023-03-19T15:43:24.423Z,1.36
2023-03-19T15:53:32.946Z,1.64
2023-03-19T16:03:44.501Z,1.34
2023-03-19T16:13:42.592Z,1.19
2023-03-19T16:23:55.514Z,1.22
2023-03-19T16:33:54.890Z,1.1
2023-03-19T16:44:05.472Z,1.66
2023-03-19T16:54:08.963Z,1.75
2023-03-19T17:04:10.932Z,1.89
2023-03-19T17:14:12.555Z,2.33
2023-03-19T17:24:13.020Z,2.04
2023-03-19T17:34:11.186Z,2.84
2023-03-19T17:44:19.389Z,2.7
2023-03-19T17:54:32.497Z,2.3
2023-03-19T18:04:30.422Z,2.78
2023-03-19T18:14:39.426Z,2.58
2023-03-19T18:24:47.432Z,3.19
2023-03-19T18:34:55.809Z,3.14
2023-03-19T18:45:07.636Z,2.61
2023-03-19T18:55:53.640Z,3.08
2023-03-19T19:04:44.392Z,3.29
2023-03-19T19:14:44.601Z,3.09
2023-03-19T19:24:47.824Z,3.7
2023-03-19T19:35:19.024Z,3.85
2023-03-19T19:44:55.561Z,2.88
2023-03-19T19:55:13.184Z,2.46
2023-03-19T20:05:26.076Z,2.49
2023-03-19T20:25:26.671Z,2.05
2023-03-19T20:35:23.570Z,4.66
2023-03-19T20:45:22.921Z,4.21
2023-03-19T20:55:25.034Z,7.46
2023-03-19T21:05:59.605Z,3.89
2023-03-19T21:16:07.024Z,3.16
2023-03-19T21:26:04.498Z,3.94
2023-03-19T21:35:56.485Z,3.43
2023-03-19T21:46:23.954Z,3.72
2023-03-19T22:26:26.201Z,4.19
2023-03-19T22:36:24.931Z,3.54
2023-03-19T22:46:40.377Z,4.36
2023-03-19T22:56:37.045Z,4.46
2023-03-19T23:06:36.162Z,3.06
2023-03-19T23:16:45.709Z,2.23
2023-03-19T23:27:20.307Z,2.24
2023-03-19T23:37:07.102Z,2.27
2023-03-19T23:47:06.854Z,4.72
2023-03-19T23:57:14.925Z,3.67
